Time;durP1;ratioP1;P1;durP2;ratioP2;P2;SDS_P1;SDS_P2;PMS_P1;PMS_P2;Temp;Humidity;BMP_temperature;BMP_pressure;BME280_temperature;BME280_humidity;BME280_pressure;Samples;Min_cycle;Max_cycle;Signal;HPM_P1;HPM_P2
2021/10/31 00:02:13;;;;;;;3.83;2.20;;;11.90;99.90;;;;;;5011931;28;21006;-61
2021/10/31 00:04:40;;;;;;;2.83;2.10;;;11.90;99.90;;;;;;5012056;28;20472;-61
2021/10/31 00:07:07;;;;;;;3.20;2.30;;;11.90;99.90;;;;;;5012090;28;20444;-61
2021/10/31 00:09:34;;;;;;;2.93;2.33;;;11.90;99.90;;;;;;5035605;28;20436;-61
2021/10/31 00:12:02;;;;;;;3.07;2.37;;;11.90;99.90;;;;;;5051015;28;20480;-61
2021/10/31 00:14:29;;;;;;;4.73;2.70;;;11.90;99.90;;;;;;5045206;28;20507;-61
2021/10/31 00:16:59;;;;;;;4.77;2.53;;;11.80;99.90;;;;;;5011066;28;20473;-61
2021/10/31 00:19:27;;;;;;;3.40;2.67;;;11.80;99.90;;;;;;5011514;28;20950;-61
2021/10/31 00:21:54;;;;;;;3.03;1.90;;;11.90;99.90;;;;;;4993712;28;21015;-61
2021/10/31 00:24:21;;;;;;;3.80;2.03;;;11.80;99.90;;;;;;5011981;28;20437;-61
2021/10/31 00:26:48;;;;;;;2.53;2.30;;;11.80;99.90;;;;;;5011050;28;20459;-61
2021/10/31 00:29:16;;;;;;;2.43;2.23;;;11.80;99.90;;;;;;4996998;28;20432;-61
2021/10/31 00:31:44;;;;;;;3.13;2.50;;;11.80;99.90;;;;;;5030807;28;20455;-61
2021/10/31 00:34:10;;;;;;;2.70;2.50;;;11.80;99.90;;;;;;5031385;28;20445;-61
2021/10/31 00:36:37;;;;;;;1.93;1.73;;;11.80;99.90;;;;;;5013092;28;20488;-61
2021/10/31 00:39:05;;;;;;;2.30;2.10;;;11.80;99.90;;;;;;5015429;28;20425;-61
2021/10/31 00:41:32;;;;;;;5.03;2.30;;;11.80;99.90;;;;;;5014770;28;20577;-61
2021/10/31 00:44:00;;;;;;;3.30;1.97;;;11.80;99.90;;;;;;5014020;28;20541;-61
2021/10/31 00:46:27;;;;;;;4.77;2.10;;;11.80;99.90;;;;;;5014176;28;20561;-61
2021/10/31 00:48:55;;;;;;;2.00;1.80;;;11.70;99.90;;;;;;4997620;28;20801;-61
2021/10/31 00:51:24;;;;;;;2.77;2.13;;;11.70;99.90;;;;;;5014731;28;20454;-61
2021/10/31 00:53:54;;;;;;;2.17;1.87;;;11.70;99.90;;;;;;4997702;28;20437;-61
2021/10/31 00:56:23;;;;;;;4.07;2.40;;;11.70;99.90;;;;;;5014423;28;20462;-62
2021/10/31 00:58:51;;;;;;;1.63;1.53;;;11.70;99.90;;;;;;5014508;28;20481;-61
2021/10/31 01:01:19;;;;;;;2.87;2.03;;;11.70;99.90;;;;;;5014525;28;20485;-61
2021/10/31 01:03:47;;;;;;;2.10;1.77;;;11.60;99.90;;;;;;5015090;28;21007;-61
2021/10/31 01:06:23;;;;;;;3.33;2.43;;;11.60;99.90;;;;;;5013823;28;20475;-61
2021/10/31 01:09:13;;;;;;;2.37;2.17;;;11.70;99.90;;;;;;5008599;28;20837;-62
2021/10/31 01:11:55;;;;;;;2.50;2.30;;;11.70;99.90;;;;;;5054094;28;20472;-61
2021/10/31 01:14:48;;;;;;;2.73;2.20;;;11.70;99.90;;;;;;5019081;28;20473;-61
2021/10/31 01:17:42;;;;;;;4.90;2.30;;;11.70;99.90;;;;;;5016902;28;20959;-61
2021/10/31 01:20:53;;;;;;;2.57;2.37;;;11.70;99.90;;;;;;5027747;28;20485;-61
2021/10/31 01:23:39;;;;;;;2.50;2.30;;;11.70;99.90;;;;;;4995100;28;20490;-61
2021/10/31 01:26:27;;;;;;;2.73;2.43;;;11.60;99.90;;;;;;5014398;28;21001;-62
2021/10/31 01:29:05;;;;;;;3.30;3.00;;;11.70;99.90;;;;;;5014904;28;20423;-62
2021/10/31 01:32:10;;;;;;;4.67;2.70;;;11.60;99.90;;;;;;5014278;28;20524;-61
2021/10/31 01:35:31;;;;;;;3.17;2.80;;;11.60;99.90;;;;;;5011177;28;20453;-61
2021/10/31 01:38:19;;;;;;;3.20;2.60;;;11.60;99.90;;;;;;4934439;29;20446;-62
2021/10/31 01:41:25;;;;;;;3.73;3.43;;;11.60;99.90;;;;;;5013625;28;20818;-62
2021/10/31 01:44:05;;;;;;;6.03;2.70;;;11.60;99.90;;;;;;4974807;28;20442;-61
2021/10/31 01:46:39;;;;;;;8.30;3.40;;;11.60;99.90;;;;;;5013514;28;20465;-62
2021/10/31 01:49:31;;;;;;;3.80;3.30;;;11.60;99.90;;;;;;5025390;28;20436;-61
2021/10/31 01:52:01;;;;;;;6.30;3.97;;;11.60;99.90;;;;;;5013625;28;20826;-61
2021/10/31 01:54:38;;;;;;;5.90;4.10;;;11.50;99.90;;;;;;5014053;28;20530;-62
2021/10/31 01:57:10;;;;;;;4.00;3.30;;;11.40;99.90;;;;;;5013147;28;20462;-61
2021/10/31 01:59:42;;;;;;;5.83;3.70;;;11.40;99.90;;;;;;5014089;28;20836;-61
2021/10/31 02:02:10;;;;;;;5.83;3.90;;;11.30;99.90;;;;;;5013396;28;21022;-61
2021/10/31 02:04:39;;;;;;;4.90;3.57;;;11.30;99.90;;;;;;5013625;28;20443;-61
2021/10/31 02:07:08;;;;;;;4.73;3.37;;;11.20;99.90;;;;;;5012852;28;20457;-62
2021/10/31 02:09:37;;;;;;;3.33;3.03;;;11.10;99.90;;;;;;5037364;28;20419;-61
2021/10/31 02:12:05;;;;;;;6.60;3.70;;;11.00;99.90;;;;;;5052730;28;20470;-61
2021/10/31 02:14:33;;;;;;;3.67;2.87;;;11.00;99.90;;;;;;5032999;28;20469;-61
2021/10/31 02:17:01;;;;;;;3.43;3.00;;;10.90;99.90;;;;;;5034535;28;20462;-61
2021/10/31 02:19:37;;;;;;;5.30;3.80;;;10.90;99.90;;;;;;5051099;28;20858;-61
2021/10/31 02:22:08;;;;;;;4.90;3.33;;;10.80;99.90;;;;;;5012918;28;20515;-61
2021/10/31 02:24:36;;;;;;;4.57;3.67;;;10.90;99.90;;;;;;5013270;28;20468;-61
2021/10/31 02:27:18;;;;;;;5.80;3.40;;;10.80;99.90;;;;;;5012722;28;21012;-61
2021/10/31 02:29:51;;;;;;;4.43;3.30;;;10.80;99.90;;;;;;5012671;28;20456;-62
2021/10/31 02:32:21;;;;;;;4.70;4.13;;;10.70;99.90;;;;;;5013329;28;20421;-61
2021/10/31 02:34:52;;;;;;;4.13;3.70;;;10.60;99.90;;;;;;5012599;28;20962;-61
2021/10/31 02:37:19;;;;;;;5.43;4.70;;;10.60;99.90;;;;;;5012903;28;20425;-61
2021/10/31 02:39:46;;;;;;;6.43;4.23;;;10.60;99.90;;;;;;5012741;28;20886;-62
2021/10/31 02:42:13;;;;;;;3.53;3.23;;;10.50;99.90;;;;;;5013053;28;20471;-62
2021/10/31 02:44:42;;;;;;;5.57;3.97;;;10.50;99.90;;;;;;5012910;28;20838;-62
2021/10/31 02:47:21;;;;;;;3.47;3.07;;;10.50;99.90;;;;;;5012468;28;20444;-62
2021/10/31 02:49:49;;;;;;;3.83;3.10;;;10.50;99.90;;;;;;5012445;28;20443;-62
2021/10/31 02:52:53;;;;;;;4.57;3.27;;;10.40;99.90;;;;;;5012986;28;20424;-62
2021/10/31 02:55:29;;;;;;;3.77;3.07;;;10.40;99.90;;;;;;5014161;28;20808;-61
2021/10/31 02:58:04;;;;;;;5.10;3.30;;;10.40;99.90;;;;;;5027342;28;20891;-61
2021/10/31 03:00:35;;;;;;;3.70;3.30;;;10.30;99.90;;;;;;5023365;28;20815;-62
2021/10/31 03:03:04;;;;;;;3.77;3.30;;;10.20;99.90;;;;;;5032721;28;20471;-62
2021/10/31 03:05:31;;;;;;;5.23;3.90;;;10.30;99.90;;;;;;5022367;28;20471;-61
2021/10/31 03:07:58;;;;;;;3.93;3.60;;;10.30;99.90;;;;;;5012532;28;20420;-62
2021/10/31 03:10:26;;;;;;;4.17;2.83;;;10.20;99.90;;;;;;5049428;28;20470;-62
2021/10/31 03:12:52;;;;;;;5.23;3.10;;;10.10;99.90;;;;;;5052477;28;20423;-62
2021/10/31 03:15:20;;;;;;;5.00;3.77;;;10.10;99.90;;;;;;5016931;28;20464;-58
2021/10/31 03:17:46;;;;;;;5.30;3.30;;;10.10;99.90;;;;;;5012370;28;20421;-58
2021/10/31 03:20:14;;;;;;;4.70;3.63;;;10.10;99.90;;;;;;5011812;28;20468;-58
2021/10/31 03:22:40;;;;;;;6.13;3.77;;;10.00;99.90;;;;;;5012350;28;20491;-58
2021/10/31 03:25:08;;;;;;;5.67;4.70;;;10.00;99.90;;;;;;5011677;28;20482;-58
2021/10/31 03:27:34;;;;;;;5.13;4.23;;;10.10;99.90;;;;;;5012285;28;20415;-58
2021/10/31 03:30:02;;;;;;;5.60;4.50;;;10.20;99.90;;;;;;5011987;28;20460;-58
2021/10/31 03:32:29;;;;;;;8.90;5.10;;;10.20;99.90;;;;;;5012424;28;20428;-58
2021/10/31 03:34:56;;;;;;;7.60;5.03;;;10.20;99.90;;;;;;4994772;28;20460;-58
2021/10/31 03:37:23;;;;;;;3.83;3.43;;;10.20;99.90;;;;;;5012026;28;20764;-58
2021/10/31 03:39:50;;;;;;;5.53;3.90;;;10.30;99.90;;;;;;5012110;28;20950;-58
2021/10/31 03:42:17;;;;;;;4.83;4.30;;;10.20;99.90;;;;;;5030812;28;20486;-58
2021/10/31 03:44:50;;;;;;;4.03;3.63;;;10.30;99.90;;;;;;5018736;28;20552;-59
2021/10/31 03:47:19;;;;;;;4.70;4.10;;;10.30;99.90;;;;;;5011953;28;20421;-58
2021/10/31 03:49:46;;;;;;;5.97;4.40;;;10.30;99.90;;;;;;5012290;28;20436;-58
2021/10/31 03:52:13;;;;;;;4.90;4.20;;;10.20;99.90;;;;;;5012275;28;21649;-58
2021/10/31 03:54:40;;;;;;;6.63;4.50;;;10.30;99.90;;;;;;5011965;28;20459;-58
2021/10/31 03:57:08;;;;;;;4.60;3.70;;;10.30;99.90;;;;;;5011499;28;21060;-58
2021/10/31 03:59:35;;;;;;;6.27;3.93;;;10.40;99.90;;;;;;5012585;28;20452;-58
2021/10/31 04:02:03;;;;;;;6.40;4.03;;;10.50;99.90;;;;;;5011173;28;20461;-58
2021/10/31 04:04:31;;;;;;;3.53;3.23;;;10.50;99.90;;;;;;5029499;28;20459;-58
2021/10/31 04:06:58;;;;;;;5.17;3.53;;;10.60;99.90;;;;;;5029439;28;20456;-58
2021/10/31 04:09:25;;;;;;;5.23;3.77;;;10.50;99.90;;;;;;5031681;28;20930;-58
2021/10/31 04:11:52;;;;;;;4.77;3.60;;;10.50;99.90;;;;;;5035160;28;20460;-58
2021/10/31 04:14:19;;;;;;;4.70;4.30;;;10.40;99.90;;;;;;5016101;28;20492;-58
2021/10/31 04:16:46;;;;;;;6.17;4.90;;;10.50;99.90;;;;;;5014903;28;20491;-59
2021/10/31 04:19:18;;;;;;;8.93;7.27;;;10.50;99.90;;;;;;5016045;28;20784;-58
2021/10/31 04:21:45;;;;;;;10.80;7.47;;;10.60;99.90;;;;;;5015296;28;20464;-58
2021/10/31 04:24:12;;;;;;;7.20;4.67;;;10.60;99.90;;;;;;5015599;28;20560;-58
2021/10/31 04:26:38;;;;;;;4.27;3.93;;;10.70;99.90;;;;;;5014987;28;21125;-58
2021/10/31 04:29:05;;;;;;;3.60;2.90;;;10.70;99.90;;;;;;5015742;28;20463;-58
2021/10/31 04:31:33;;;;;;;5.27;3.33;;;10.70;99.90;;;;;;4997578;28;20453;-58
2021/10/31 04:34:00;;;;;;;4.67;3.30;;;10.60;99.90;;;;;;5026091;28;20519;-58
2021/10/31 04:36:27;;;;;;;3.80;3.40;;;10.60;99.90;;;;;;5025136;28;20835;-58
2021/10/31 04:38:56;;;;;;;3.03;2.83;;;10.60;99.90;;;;;;5015927;28;20799;-58
2021/10/31 04:41:25;;;;;;;3.57;3.27;;;10.60;99.90;;;;;;5015323;28;20457;-58
2021/10/31 04:43:52;;;;;;;3.47;3.17;;;10.50;99.90;;;;;;5015187;28;20471;-59
2021/10/31 04:46:19;;;;;;;4.17;3.63;;;10.40;99.90;;;;;;5014828;28;20997;-58
2021/10/31 04:48:46;;;;;;;4.10;2.77;;;10.40;99.90;;;;;;5015466;28;20421;-58
2021/10/31 04:51:13;;;;;;;3.33;3.03;;;10.40;99.90;;;;;;5015104;28;20480;-58
2021/10/31 04:53:40;;;;;;;4.10;3.33;;;10.40;99.90;;;;;;5015098;28;20911;-58
2021/10/31 04:56:08;;;;;;;3.53;3.23;;;10.40;99.90;;;;;;5014523;28;20675;-58
2021/10/31 04:58:35;;;;;;;3.93;3.13;;;10.40;99.90;;;;;;5015032;28;20437;-58
2021/10/31 05:01:03;;;;;;;5.97;3.47;;;10.40;99.90;;;;;;5014656;28;20468;-58
2021/10/31 05:03:31;;;;;;;3.30;2.97;;;10.40;99.90;;;;;;5014903;28;20499;-58
2021/10/31 05:05:59;;;;;;;3.77;3.40;;;10.40;99.90;;;;;;5014541;28;20834;-58
2021/10/31 05:08:26;;;;;;;3.60;2.97;;;10.50;99.90;;;;;;5020065;28;20428;-58
2021/10/31 05:10:53;;;;;;;3.27;2.97;;;10.50;99.90;;;;;;5054083;28;20473;-58
2021/10/31 05:13:20;;;;;;;5.10;3.37;;;10.50;99.90;;;;;;5054380;28;20423;-58
2021/10/31 05:15:47;;;;;;;4.83;2.87;;;10.50;99.90;;;;;;5022268;28;20555;-58
2021/10/31 05:18:14;;;;;;;3.90;2.70;;;10.50;99.90;;;;;;5014602;28;20452;-58
2021/10/31 05:20:41;;;;;;;3.80;2.90;;;10.50;99.90;;;;;;5014048;28;20479;-58
2021/10/31 05:23:08;;;;;;;3.27;2.80;;;10.50;99.90;;;;;;5013906;28;20480;-58
2021/10/31 05:25:34;;;;;;;3.57;3.27;;;10.50;99.90;;;;;;5013843;28;20456;-58
2021/10/31 05:28:01;;;;;;;3.57;3.00;;;10.50;99.90;;;;;;5014360;28;20879;-58
2021/10/31 05:30:28;;;;;;;3.23;2.57;;;10.40;99.90;;;;;;5013949;28;20441;-58
2021/10/31 05:32:55;;;;;;;3.23;2.93;;;10.30;99.90;;;;;;5014445;28;20436;-58
2021/10/31 05:35:22;;;;;;;3.30;2.70;;;10.30;99.90;;;;;;5013797;28;20469;-58
2021/10/31 05:37:56;;;;;;;3.00;2.70;;;10.20;99.90;;;;;;5014108;28;20421;-58
2021/10/31 05:40:23;;;;;;;2.57;2.37;;;10.20;99.90;;;;;;5013538;28;20831;-58
2021/10/31 05:42:50;;;;;;;3.37;2.70;;;10.20;99.90;;;;;;5014280;28;20477;-58
2021/10/31 05:45:16;;;;;;;3.77;2.87;;;10.20;99.90;;;;;;5017407;28;20463;-58
2021/10/31 05:47:45;;;;;;;3.40;2.70;;;10.20;99.90;;;;;;5034813;28;20423;-58
2021/10/31 05:50:14;;;;;;;5.70;3.03;;;10.10;99.90;;;;;;5026080;28;20452;-58
2021/10/31 05:52:42;;;;;;;4.60;2.97;;;10.10;99.90;;;;;;5013959;28;20428;-58
2021/10/31 05:55:10;;;;;;;2.77;2.57;;;10.10;99.90;;;;;;5013369;28;20472;-58
2021/10/31 05:57:37;;;;;;;3.00;2.70;;;10.20;99.90;;;;;;5013670;28;20421;-58
2021/10/31 06:00:07;;;;;;;4.80;2.80;;;10.20;99.90;;;;;;5013722;28;20453;-58
2021/10/31 06:02:42;;;;;;;3.03;2.73;;;10.20;99.90;;;;;;5013749;28;20460;-58
2021/10/31 06:05:11;;;;;;;3.27;2.97;;;10.10;99.90;;;;;;5012935;28;20539;-58
2021/10/31 06:07:39;;;;;;;5.93;3.50;;;10.10;99.90;;;;;;5013635;28;20417;-58
2021/10/31 06:10:07;;;;;;;4.47;3.40;;;10.10;99.90;;;;;;5050953;28;20458;-58
2021/10/31 06:12:35;;;;;;;4.87;3.17;;;10.10;99.90;;;;;;5068349;28;20415;-58
2021/10/31 06:15:03;;;;;;;4.23;3.10;;;10.00;99.90;;;;;;5022238;28;20448;-58
2021/10/31 06:17:31;;;;;;;3.40;3.10;;;10.00;99.90;;;;;;5031930;28;20433;-58
2021/10/31 06:19:58;;;;;;;3.40;2.90;;;10.00;99.90;;;;;;5020687;28;20437;-58
2021/10/31 06:22:25;;;;;;;5.73;3.60;;;10.00;99.90;;;;;;4996248;28;20433;-58
2021/10/31 06:24:52;;;;;;;2.60;2.40;;;10.20;99.90;;;;;;5044113;28;20450;-58
2021/10/31 06:27:18;;;;;;;3.23;2.30;;;10.20;99.90;;;;;;5027658;28;20453;-58
2021/10/31 06:29:45;;;;;;;3.07;2.57;;;10.40;99.90;;;;;;5013424;28;20428;-58
2021/10/31 06:32:12;;;;;;;3.93;2.50;;;10.50;99.90;;;;;;5012913;28;20453;-58
2021/10/31 06:34:39;;;;;;;5.20;3.03;;;10.60;99.90;;;;;;5011860;28;20959;-58
2021/10/31 06:37:06;;;;;;;4.20;3.60;;;10.60;99.90;;;;;;5044661;28;20574;-58
2021/10/31 06:39:33;;;;;;;4.50;3.57;;;10.70;99.90;;;;;;5053146;28;20430;-58
2021/10/31 06:42:00;;;;;;;4.20;3.00;;;10.70;99.90;;;;;;5052222;28;20466;-58
2021/10/31 06:44:27;;;;;;;4.80;3.20;;;10.80;99.90;;;;;;5032145;28;20903;-58
2021/10/31 06:46:54;;;;;;;4.20;3.00;;;10.80;99.90;;;;;;5011964;28;20473;-58
2021/10/31 06:49:21;;;;;;;3.77;2.93;;;10.70;99.90;;;;;;5012767;28;20456;-58
2021/10/31 06:51:48;;;;;;;6.23;3.13;;;10.80;99.90;;;;;;4994703;28;20460;-58
2021/10/31 06:54:15;;;;;;;2.80;2.60;;;10.90;99.90;;;;;;5012930;28;20449;-58
2021/10/31 06:56:42;;;;;;;4.33;2.63;;;10.90;99.90;;;;;;5012161;28;20461;-58
2021/10/31 06:59:09;;;;;;;3.03;2.77;;;10.90;99.90;;;;;;5012584;28;20431;-58
2021/10/31 07:01:36;;;;;;;2.83;2.27;;;11.00;99.90;;;;;;5012206;28;20544;-58
2021/10/31 07:04:06;;;;;;;5.67;3.70;;;11.00;99.90;;;;;;5012476;28;20555;-58
2021/10/31 07:06:34;;;;;;;3.20;2.90;;;11.10;99.90;;;;;;5012091;28;20460;-58
2021/10/31 07:09:02;;;;;;;4.50;3.00;;;11.00;99.90;;;;;;4994975;28;20528;-58
2021/10/31 07:11:29;;;;;;;2.90;2.70;;;11.10;99.90;;;;;;5031226;28;20462;-58
2021/10/31 07:13:56;;;;;;;3.83;2.80;;;11.10;99.90;;;;;;5015505;28;20444;-58
2021/10/31 07:16:22;;;;;;;6.10;2.50;;;11.10;99.90;;;;;;5011880;28;20491;-58
2021/10/31 07:18:49;;;;;;;2.90;2.60;;;11.20;99.90;;;;;;5012414;28;20440;-58
2021/10/31 07:21:16;;;;;;;2.97;2.77;;;11.20;99.90;;;;;;5012201;28;20460;-58
2021/10/31 07:23:43;;;;;;;3.00;2.80;;;11.30;99.90;;;;;;5012674;28;20460;-58
2021/10/31 07:26:10;;;;;;;3.30;3.00;;;11.30;99.90;;;;;;4994055;28;20483;-58
2021/10/31 07:28:37;;;;;;;3.77;2.80;;;11.30;99.90;;;;;;5011983;28;20448;-58
2021/10/31 07:31:05;;;;;;;2.90;2.47;;;11.30;99.90;;;;;;5011818;28;20974;-58
2021/10/31 07:33:33;;;;;;;2.90;2.60;;;11.30;99.90;;;;;;5012363;28;20429;-58
2021/10/31 07:35:59;;;;;;;3.30;2.83;;;11.40;99.90;;;;;;5011570;28;20468;-58
2021/10/31 07:38:27;;;;;;;4.57;2.80;;;11.40;99.90;;;;;;5012305;28;20505;-58
2021/10/31 07:40:54;;;;;;;3.40;2.87;;;11.40;99.90;;;;;;5011785;28;20970;-58
2021/10/31 07:43:21;;;;;;;3.27;2.97;;;11.50;99.90;;;;;;5011818;28;20469;-58
2021/10/31 07:45:48;;;;;;;3.77;2.83;;;11.40;99.90;;;;;;4994691;28;20854;-58
2021/10/31 07:48:15;;;;;;;2.63;2.23;;;11.50;99.90;;;;;;5027669;28;20488;-58
2021/10/31 07:50:42;;;;;;;2.60;2.40;;;11.50;99.90;;;;;;5020517;28;20453;-58
2021/10/31 07:53:11;;;;;;;2.07;1.63;;;11.50;99.90;;;;;;5012103;28;20429;-58
2021/10/31 07:55:39;;;;;;;3.70;2.40;;;11.50;99.90;;;;;;5033232;28;20469;-58
2021/10/31 07:58:08;;;;;;;3.30;3.00;;;11.50;99.90;;;;;;5034537;28;20425;-58
2021/10/31 08:00:35;;;;;;;2.33;2.10;;;11.50;99.90;;;;;;5019363;28;20469;-58
2021/10/31 08:03:03;;;;;;;2.90;2.60;;;11.50;99.90;;;;;;4994582;28;20524;-58
2021/10/31 08:05:30;;;;;;;2.50;2.30;;;11.40;99.90;;;;;;4994091;28;20478;-58
2021/10/31 08:07:58;;;;;;;2.73;2.53;;;11.40;99.90;;;;;;5011687;28;20423;-58
2021/10/31 08:10:26;;;;;;;3.03;2.53;;;11.40;99.90;;;;;;5022953;28;20459;-58
2021/10/31 08:12:52;;;;;;;2.40;2.17;;;11.40;99.90;;;;;;5028545;28;20445;-58
2021/10/31 08:15:20;;;;;;;2.67;2.47;;;11.40;99.90;;;;;;5031089;28;20839;-58
2021/10/31 08:17:47;;;;;;;3.70;3.37;;;11.40;99.90;;;;;;5031261;28;20420;-58
2021/10/31 08:20:14;;;;;;;3.17;2.87;;;11.40;99.90;;;;;;5023982;28;20456;-58
2021/10/31 08:22:41;;;;;;;3.90;3.17;;;11.40;99.90;;;;;;5011629;28;20440;-58
2021/10/31 08:25:08;;;;;;;4.40;3.87;;;11.50;99.90;;;;;;5011479;28;20466;-58
2021/10/31 08:27:35;;;;;;;5.43;3.83;;;11.60;99.90;;;;;;5011859;28;20440;-58
2021/10/31 08:30:04;;;;;;;3.70;3.30;;;11.60;99.90;;;;;;5018693;28;20816;-58
2021/10/31 08:32:42;;;;;;;4.67;3.53;;;11.70;99.90;;;;;;5011323;28;20422;-58
2021/10/31 08:35:09;;;;;;;4.13;3.73;;;11.80;99.90;;;;;;5011228;28;20457;-58
2021/10/31 08:37:36;;;;;;;3.77;3.10;;;11.90;99.90;;;;;;5011285;28;20432;-58
2021/10/31 08:40:05;;;;;;;4.27;3.67;;;11.90;99.90;;;;;;5011182;28;20429;-58
2021/10/31 08:42:32;;;;;;;5.50;3.67;;;11.90;99.90;;;;;;5013894;28;20543;-58
2021/10/31 08:44:59;;;;;;;3.73;3.30;;;12.00;99.90;;;;;;5030475;28;20478;-58
2021/10/31 08:47:26;;;;;;;4.30;3.73;;;12.00;99.90;;;;;;5038529;28;20439;-58
2021/10/31 08:49:53;;;;;;;4.40;4.00;;;12.00;99.90;;;;;;5027159;28;20437;-59
2021/10/31 08:52:20;;;;;;;3.60;3.30;;;12.10;99.90;;;;;;5026443;28;20426;-59
2021/10/31 08:54:47;;;;;;;3.77;3.13;;;12.10;99.90;;;;;;5051106;28;20435;-59
2021/10/31 08:57:14;;;;;;;4.63;3.17;;;12.10;99.90;;;;;;5038566;28;20763;-59
2021/10/31 08:59:41;;;;;;;5.80;3.60;;;12.20;99.90;;;;;;5015100;28;20431;-59
2021/10/31 09:02:08;;;;;;;3.17;2.87;;;12.20;99.90;;;;;;5014414;28;20885;-59
2021/10/31 09:04:39;;;;;;;5.10;3.27;;;12.30;99.90;;;;;;5032368;28;21122;-59
2021/10/31 09:07:14;;;;;;;3.53;3.23;;;12.30;99.90;;;;;;5043870;28;20557;-59
2021/10/31 09:09:43;;;;;;;4.80;3.70;;;12.40;99.90;;;;;;5014932;28;20824;-59
2021/10/31 09:12:11;;;;;;;4.37;3.60;;;12.40;99.90;;;;;;5032073;28;20450;-59
2021/10/31 09:14:42;;;;;;;3.43;3.13;;;12.50;99.90;;;;;;5045626;28;20463;-59
2021/10/31 09:17:09;;;;;;;5.20;3.10;;;12.40;99.90;;;;;;5013984;28;20478;-59
2021/10/31 09:19:36;;;;;;;3.60;2.93;;;12.50;99.90;;;;;;5008494;28;20448;-59
2021/10/31 09:22:03;;;;;;;3.40;3.20;;;12.50;99.90;;;;;;5041063;28;20984;-59
2021/10/31 09:24:30;;;;;;;3.90;3.60;;;12.50;99.90;;;;;;5054023;28;20484;-59
2021/10/31 09:26:58;;;;;;;3.50;3.23;;;12.50;99.90;;;;;;5040822;28;20459;-58
2021/10/31 09:29:26;;;;;;;3.97;2.80;;;12.50;99.90;;;;;;5031355;28;20442;-58
2021/10/31 09:31:53;;;;;;;3.47;3.17;;;12.50;99.90;;;;;;5025710;28;20975;-59
2021/10/31 09:34:20;;;;;;;4.30;3.43;;;12.60;99.90;;;;;;5054354;28;20504;-59
2021/10/31 09:36:47;;;;;;;2.80;2.60;;;12.60;99.90;;;;;;5046513;28;20572;-58
2021/10/31 09:39:15;;;;;;;3.87;3.17;;;12.60;99.90;;;;;;5054325;28;20472;-58
2021/10/31 09:41:42;;;;;;;5.00;3.47;;;12.70;99.90;;;;;;5053882;28;20461;-59
2021/10/31 09:44:34;;;;;;;3.60;2.63;;;12.80;99.90;;;;;;5016538;28;21488;-58
2021/10/31 09:46:56;;;;;;;2.33;2.13;;;12.90;99.90;;;;;;5013597;28;20459;-58
2021/10/31 09:49:24;;;;;;;2.90;2.70;;;13.10;99.90;;;;;;5052837;28;20430;-58
2021/10/31 09:51:53;;;;;;;3.40;2.60;;;13.10;99.90;;;;;;5013706;28;20460;-59
2021/10/31 09:54:20;;;;;;;3.33;2.37;;;13.20;99.90;;;;;;5014037;28;21003;-58
2021/10/31 09:56:47;;;;;;;2.80;2.60;;;13.30;99.90;;;;;;5013421;28;20807;-58
2021/10/31 09:59:17;;;;;;;2.40;2.20;;;13.30;99.90;;;;;;5014358;28;20459;-59
2021/10/31 10:01:58;;;;;;;3.00;2.50;;;13.40;99.90;;;;;;5019119;28;20470;-58
2021/10/31 10:04:38;;;;;;;2.83;2.60;;;13.50;99.90;;;;;;5025456;28;20477;-59
2021/10/31 10:07:08;;;;;;;4.10;2.97;;;13.50;99.90;;;;;;5012922;28;20477;-59
2021/10/31 10:09:36;;;;;;;2.97;2.77;;;13.50;99.90;;;;;;5013688;28;20417;-59
2021/10/31 10:12:14;;;;;;;2.80;2.60;;;13.70;99.90;;;;;;5013092;28;20469;-58
2021/10/31 10:14:47;;;;;;;3.30;3.00;;;13.80;99.90;;;;;;5013860;28;20804;-59
2021/10/31 10:17:14;;;;;;;4.20;2.40;;;13.80;99.90;;;;;;5045257;28;20992;-58
2021/10/31 10:19:50;;;;;;;2.63;2.43;;;13.90;99.90;;;;;;5049375;28;20450;-59
2021/10/31 10:22:20;;;;;;;3.63;2.63;;;13.90;99.90;;;;;;5033341;28;20644;-59
2021/10/31 10:24:59;;;;;;;2.87;2.63;;;13.80;99.90;;;;;;5025951;28;20471;-58
2021/10/31 10:27:33;;;;;;;3.10;2.90;;;13.80;99.90;;;;;;5052883;28;20423;-58
2021/10/31 10:30:14;;;;;;;4.60;2.93;;;14.00;99.90;;;;;;5014575;28;20471;-59
2021/10/31 10:32:58;;;;;;;3.20;2.90;;;14.10;99.90;;;;;;4995973;28;20424;-59
2021/10/31 10:35:27;;;;;;;6.20;3.17;;;14.20;99.90;;;;;;5012782;28;20544;-59
2021/10/31 10:37:56;;;;;;;3.10;2.50;;;14.30;99.90;;;;;;5013489;28;20815;-59
2021/10/31 10:40:27;;;;;;;4.53;3.43;;;14.30;99.90;;;;;;5012493;28;20507;-59
2021/10/31 10:42:57;;;;;;;6.17;3.63;;;14.40;99.90;;;;;;5013191;28;20531;-59
2021/10/31 10:45:26;;;;;;;3.30;3.00;;;14.50;99.90;;;;;;4994989;28;21058;-59
2021/10/31 10:47:56;;;;;;;4.70;3.53;;;14.50;99.90;;;;;;5012816;28;20435;-59
2021/10/31 10:50:27;;;;;;;4.33;3.33;;;14.50;99.90;;;;;;5012885;28;20457;-59
2021/10/31 10:52:55;;;;;;;3.30;3.00;;;14.60;99.90;;;;;;5026273;28;20938;-58
2021/10/31 10:55:30;;;;;;;3.70;2.23;;;14.70;99.90;;;;;;5032136;28;20494;-59
2021/10/31 10:58:00;;;;;;;3.03;2.73;;;14.90;99.90;;;;;;5025170;28;20448;-59
2021/10/31 11:00:37;;;;;;;4.60;3.40;;;15.00;99.90;;;;;;5012490;28;20475;-58
2021/10/31 11:03:07;;;;;;;5.60;4.27;;;15.00;99.90;;;;;;5025632;28;20469;-59
2021/10/31 11:05:38;;;;;;;3.50;3.20;;;15.10;99.90;;;;;;5032206;28;20473;-62
2021/10/31 11:08:16;;;;;;;3.87;2.80;;;15.20;99.90;;;;;;5012777;28;20441;-62
2021/10/31 11:10:45;;;;;;;4.40;3.07;;;15.20;99.90;;;;;;5014342;28;20464;-62
2021/10/31 11:13:12;;;;;;;4.03;3.23;;;15.30;99.90;;;;;;5014894;28;20425;-62
2021/10/31 11:15:40;;;;;;;3.90;2.40;;;15.30;99.90;;;;;;5011135;28;20469;-62
2021/10/31 11:18:08;;;;;;;2.30;2.10;;;15.30;99.90;;;;;;5012815;28;20433;-62
2021/10/31 11:20:38;;;;;;;2.57;1.90;;;15.30;99.90;;;;;;5020697;28;20468;-62
2021/10/31 11:23:08;;;;;;;2.53;1.70;;;15.40;99.90;;;;;;5032833;28;20425;-62
2021/10/31 11:25:39;;;;;;;0.93;0.83;;;15.40;99.90;;;;;;5049066;28;20471;-61
2021/10/31 11:28:12;;;;;;;1.40;1.30;;;15.50;99.90;;;;;;5052638;28;20801;-61
2021/10/31 11:30:45;;;;;;;1.50;1.40;;;15.60;99.90;;;;;;5029216;28;20489;-61
2021/10/31 11:33:13;;;;;;;1.33;1.00;;;15.70;99.90;;;;;;4995220;28;20845;-61
2021/10/31 11:35:40;;;;;;;1.47;1.37;;;15.60;99.90;;;;;;5011993;28;20548;-61
2021/10/31 11:38:13;;;;;;;3.30;2.20;;;15.70;99.90;;;;;;5012220;28;20433;-61
2021/10/31 11:40:48;;;;;;;2.00;1.90;;;15.80;99.90;;;;;;5028440;28;20456;-62
2021/10/31 11:43:27;;;;;;;1.43;1.33;;;15.90;99.90;;;;;;5030437;28;20535;-61
2021/10/31 11:45:55;;;;;;;1.20;1.10;;;15.80;99.90;;;;;;5029424;28;20551;-61
2021/10/31 11:48:27;;;;;;;1.90;1.67;;;15.80;99.90;;;;;;5013568;28;20452;-61
2021/10/31 11:51:00;;;;;;;2.73;2.00;;;15.90;99.90;;;;;;5021573;28;20468;-61
2021/10/31 11:53:30;;;;;;;3.03;1.47;;;15.90;99.90;;;;;;5001799;28;20899;-61
2021/10/31 11:56:02;;;;;;;3.37;2.33;;;16.00;99.90;;;;;;5033182;28;20897;-61
2021/10/31 11:58:36;;;;;;;5.37;2.63;;;15.90;99.90;;;;;;5015208;28;20440;-61
2021/10/31 12:01:16;;;;;;;2.67;2.00;;;15.90;99.90;;;;;;5020375;28;20865;-61
2021/10/31 12:03:52;;;;;;;2.27;1.83;;;16.00;99.90;;;;;;5034969;28;20428;-61
2021/10/31 12:06:22;;;;;;;3.33;2.67;;;16.20;99.90;;;;;;5023139;28;20471;-61
2021/10/31 12:08:54;;;;;;;2.77;2.37;;;16.20;99.90;;;;;;5031849;28;20420;-61
2021/10/31 12:11:30;;;;;;;2.60;2.30;;;16.20;99.90;;;;;;5031023;28;20551;-61
2021/10/31 12:14:08;;;;;;;2.43;2.00;;;16.30;99.90;;;;;;5030072;28;20451;-61
2021/10/31 12:16:54;;;;;;;2.70;2.40;;;16.30;99.90;;;;;;5015249;28;20464;-61
2021/10/31 12:19:34;;;;;;;2.80;2.07;;;16.30;99.90;;;;;;5031069;28;20432;-61
2021/10/31 12:22:31;;;;;;;1.63;1.53;;;16.40;99.90;;;;;;4994424;28;20487;-61
2021/10/31 12:25:05;;;;;;;2.07;1.40;;;16.30;99.90;;;;;;5048984;28;20479;-61
2021/10/31 12:27:41;;;;;;;1.80;1.70;;;16.30;99.90;;;;;;5043257;28;20483;-61
2021/10/31 12:30:20;;;;;;;1.77;1.33;;;16.30;99.90;;;;;;4999812;28;20455;-61
2021/10/31 12:32:48;;;;;;;4.53;1.40;;;16.20;99.90;;;;;;5028688;28;20453;-61
2021/10/31 12:35:27;;;;;;;1.77;1.63;;;16.20;99.90;;;;;;5035763;28;20946;-61
2021/10/31 12:38:20;;;;;;;1.57;1.47;;;16.20;99.90;;;;;;5049265;28;20535;-61
2021/10/31 12:41:07;;;;;;;1.43;1.23;;;16.20;99.90;;;;;;5016724;28;20471;-61
2021/10/31 12:43:47;;;;;;;1.50;1.40;;;16.20;99.90;;;;;;5027189;28;20445;-61
2021/10/31 12:46:16;;;;;;;3.30;1.20;;;16.20;99.90;;;;;;5028121;28;20845;-61
2021/10/31 12:48:43;;;;;;;1.40;1.20;;;16.10;99.90;;;;;;5035138;28;20420;-61
2021/10/31 12:51:16;;;;;;;4.40;1.93;;;16.10;99.90;;;;;;5019585;28;21215;-61
2021/10/31 12:53:44;;;;;;;5.03;2.13;;;16.10;99.90;;;;;;4998120;28;20456;-61
2021/10/31 12:56:12;;;;;;;1.57;1.47;;;16.20;99.90;;;;;;5026359;28;20467;-61
2021/10/31 12:58:39;;;;;;;1.50;1.33;;;16.20;99.90;;;;;;5037720;28;20445;-61
2021/10/31 13:01:06;;;;;;;1.47;1.10;;;16.20;99.90;;;;;;5036578;28;20469;-61
2021/10/31 13:03:33;;;;;;;2.27;1.30;;;16.30;99.90;;;;;;5035232;28;20790;-61
2021/10/31 13:06:02;;;;;;;1.60;1.37;;;16.30;99.90;;;;;;5029821;28;20464;-61